Queen City, Ohio
Current Conditions -  °F | °C
As of 4:14 PM on Tuesday 21 Oct 2014 (Local Time) from KI69 Reporting Station
Overcast Overcast  
Wind Chill: 54°   Ceiling: 5000
Heat Index: 54°   Visibility: 10mi
Dew Point: 43°   Wind: 6mph
Humidity: 67%   Direction: 320°NW
Pressure: 30.06"   Gusts: NA
Location:  39.0938°N, 84.574°W
Report Text: KI69 212014Z AUTO 32005KT 10SM SCT028 BKN050 OVC060 12/06 A3006 RMK AO1
Loading
Personal Weather Stations






























Interactive Weather Map
Tropical Storm Tracking
New forecast layout! Learn more

10-Day Weather Forecast

Advertisements
Track Severe Weather on mobile